sensor_id;sensor_type;location;lat;lon;timestamp;P1;durP1;ratioP1;P2;durP2;ratioP2
72439;SDS011;60446;50.752;4.352;2023-02-04T00:00:12;19.52;;;7.57;;
72439;SDS011;60446;50.752;4.352;2023-02-04T00:02:42;19.23;;;7.07;;
72439;SDS011;60446;50.752;4.352;2023-02-04T00:05:10;18.77;;;7.28;;
72439;SDS011;60446;50.752;4.352;2023-02-04T00:07:38;18.50;;;7.30;;
72439;SDS011;60446;50.752;4.352;2023-02-04T00:10:07;20.42;;;7.20;;
72439;SDS011;60446;50.752;4.352;2023-02-04T00:12:35;23.67;;;7.43;;
72439;SDS011;60446;50.752;4.352;2023-02-04T00:15:02;16.47;;;7.50;;
72439;SDS011;60446;50.752;4.352;2023-02-04T00:17:31;22.70;;;7.50;;
72439;SDS011;60446;50.752;4.352;2023-02-04T00:19:58;17.15;;;7.13;;
72439;SDS011;60446;50.752;4.352;2023-02-04T00:22:25;18.83;;;7.22;;
72439;SDS011;60446;50.752;4.352;2023-02-04T00:24:54;20.83;;;8.05;;
72439;SDS011;60446;50.752;4.352;2023-02-04T00:27:21;16.97;;;7.23;;
72439;SDS011;60446;50.752;4.352;2023-02-04T00:29:48;21.15;;;7.47;;
72439;SDS011;60446;50.752;4.352;2023-02-04T00:32:16;18.45;;;7.88;;
72439;SDS011;60446;50.752;4.352;2023-02-04T00:34:43;19.88;;;7.38;;
72439;SDS011;60446;50.752;4.352;2023-02-04T00:37:11;21.92;;;8.50;;
72439;SDS011;60446;50.752;4.352;2023-02-04T00:39:38;20.17;;;7.30;;
72439;SDS011;60446;50.752;4.352;2023-02-04T00:42:05;19.25;;;8.00;;
72439;SDS011;60446;50.752;4.352;2023-02-04T00:44:34;21.40;;;8.00;;
72439;SDS011;60446;50.752;4.352;2023-02-04T00:47:02;21.65;;;8.52;;
72439;SDS011;60446;50.752;4.352;2023-02-04T00:49:31;19.65;;;8.82;;
72439;SDS011;60446;50.752;4.352;2023-02-04T00:51:59;19.10;;;8.07;;
72439;SDS011;60446;50.752;4.352;2023-02-04T00:54:27;23.02;;;7.53;;
72439;SDS011;60446;50.752;4.352;2023-02-04T00:56:54;21.63;;;8.40;;
72439;SDS011;60446;50.752;4.352;2023-02-04T00:59:21;22.75;;;7.78;;
72439;SDS011;60446;50.752;4.352;2023-02-04T01:01:48;22.98;;;9.15;;
72439;SDS011;60446;50.752;4.352;2023-02-04T01:04:16;18.80;;;8.70;;
72439;SDS011;60446;50.752;4.352;2023-02-04T01:06:44;19.95;;;8.50;;
72439;SDS011;60446;50.752;4.352;2023-02-04T01:09:11;21.50;;;8.13;;
72439;SDS011;60446;50.752;4.352;2023-02-04T01:11:38;19.42;;;7.60;;
72439;SDS011;60446;50.752;4.352;2023-02-04T01:14:05;23.75;;;8.45;;
72439;SDS011;60446;50.752;4.352;2023-02-04T01:16:33;20.33;;;8.30;;
72439;SDS011;60446;50.752;4.352;2023-02-04T01:19:00;20.73;;;8.32;;
72439;SDS011;60446;50.752;4.352;2023-02-04T01:21:27;25.08;;;8.82;;
72439;SDS011;60446;50.752;4.352;2023-02-04T01:23:54;23.70;;;9.57;;
72439;SDS011;60446;50.752;4.352;2023-02-04T01:26:22;20.52;;;8.73;;
72439;SDS011;60446;50.752;4.352;2023-02-04T01:28:49;25.27;;;9.13;;
72439;SDS011;60446;50.752;4.352;2023-02-04T01:31:17;24.05;;;10.02;;
72439;SDS011;60446;50.752;4.352;2023-02-04T01:33:47;21.92;;;8.02;;
72439;SDS011;60446;50.752;4.352;2023-02-04T01:36:14;26.65;;;9.02;;
72439;SDS011;60446;50.752;4.352;2023-02-04T01:38:47;20.45;;;9.32;;
72439;SDS011;60446;50.752;4.352;2023-02-04T01:41:15;20.40;;;8.60;;
72439;SDS011;60446;50.752;4.352;2023-02-04T01:43:46;27.63;;;9.98;;
72439;SDS011;60446;50.752;4.352;2023-02-04T01:46:14;21.48;;;9.55;;
72439;SDS011;60446;50.752;4.352;2023-02-04T01:48:42;23.25;;;9.70;;
72439;SDS011;60446;50.752;4.352;2023-02-04T01:51:10;27.23;;;11.23;;
72439;SDS011;60446;50.752;4.352;2023-02-04T01:53:41;25.57;;;10.57;;
72439;SDS011;60446;50.752;4.352;2023-02-04T01:56:19;24.63;;;10.57;;
72439;SDS011;60446;50.752;4.352;2023-02-04T01:58:54;27.85;;;10.77;;
72439;SDS011;60446;50.752;4.352;2023-02-04T02:04:10;23.00;;;10.43;;
72439;SDS011;60446;50.752;4.352;2023-02-04T02:06:43;26.70;;;10.60;;
72439;SDS011;60446;50.752;4.352;2023-02-04T02:09:16;30.95;;;11.52;;
72439;SDS011;60446;50.752;4.352;2023-02-04T02:11:43;25.88;;;9.98;;
72439;SDS011;60446;50.752;4.352;2023-02-04T02:14:10;27.65;;;10.85;;
72439;SDS011;60446;50.752;4.352;2023-02-04T02:16:38;26.05;;;9.90;;
72439;SDS011;60446;50.752;4.352;2023-02-04T02:19:06;31.93;;;10.63;;
72439;SDS011;60446;50.752;4.352;2023-02-04T02:24:48;26.83;;;10.52;;
72439;SDS011;60446;50.752;4.352;2023-02-04T02:27:08;27.67;;;10.80;;
72439;SDS011;60446;50.752;4.352;2023-02-04T02:29:37;25.67;;;10.48;;
72439;SDS011;60446;50.752;4.352;2023-02-04T02:32:07;32.17;;;11.43;;
72439;SDS011;60446;50.752;4.352;2023-02-04T02:34:36;27.73;;;9.85;;
72439;SDS011;60446;50.752;4.352;2023-02-04T02:37:04;27.95;;;10.85;;
72439;SDS011;60446;50.752;4.352;2023-02-04T02:39:37;28.05;;;11.07;;
72439;SDS011;60446;50.752;4.352;2023-02-04T02:42:06;32.88;;;10.45;;
72439;SDS011;60446;50.752;4.352;2023-02-04T02:44:34;24.60;;;9.87;;
72439;SDS011;60446;50.752;4.352;2023-02-04T02:47:01;29.60;;;10.43;;
72439;SDS011;60446;50.752;4.352;2023-02-04T02:49:29;28.10;;;10.25;;
72439;SDS011;60446;50.752;4.352;2023-02-04T02:51:58;29.02;;;10.45;;
72439;SDS011;60446;50.752;4.352;2023-02-04T02:54:27;28.42;;;10.20;;
72439;SDS011;60446;50.752;4.352;2023-02-04T02:56:59;29.30;;;11.10;;
72439;SDS011;60446;50.752;4.352;2023-02-04T02:59:26;28.75;;;11.38;;
72439;SDS011;60446;50.752;4.352;2023-02-04T03:01:55;28.92;;;10.73;;
72439;SDS011;60446;50.752;4.352;2023-02-04T03:04:29;25.85;;;9.15;;
72439;SDS011;60446;50.752;4.352;2023-02-04T03:07:03;20.67;;;9.07;;
72439;SDS011;60446;50.752;4.352;2023-02-04T03:09:33;24.00;;;10.03;;
72439;SDS011;60446;50.752;4.352;2023-02-04T03:12:01;25.13;;;9.52;;
72439;SDS011;60446;50.752;4.352;2023-02-04T03:14:31;24.50;;;9.13;;
72439;SDS011;60446;50.752;4.352;2023-02-04T03:16:59;24.50;;;8.77;;
72439;SDS011;60446;50.752;4.352;2023-02-04T03:19:29;25.42;;;10.02;;
72439;SDS011;60446;50.752;4.352;2023-02-04T03:21:56;23.33;;;9.57;;
72439;SDS011;60446;50.752;4.352;2023-02-04T03:24:25;24.92;;;10.15;;
72439;SDS011;60446;50.752;4.352;2023-02-04T03:26:52;23.13;;;9.20;;
72439;SDS011;60446;50.752;4.352;2023-02-04T03:29:20;24.98;;;9.35;;
72439;SDS011;60446;50.752;4.352;2023-02-04T03:31:47;22.58;;;9.10;;
72439;SDS011;60446;50.752;4.352;2023-02-04T03:34:15;26.40;;;9.83;;
72439;SDS011;60446;50.752;4.352;2023-02-04T03:36:42;25.95;;;10.38;;
72439;SDS011;60446;50.752;4.352;2023-02-04T03:39:09;22.15;;;8.75;;
72439;SDS011;60446;50.752;4.352;2023-02-04T03:41:36;26.52;;;10.15;;
72439;SDS011;60446;50.752;4.352;2023-02-04T03:44:04;23.25;;;9.02;;
72439;SDS011;60446;50.752;4.352;2023-02-04T03:46:31;22.13;;;8.33;;
72439;SDS011;60446;50.752;4.352;2023-02-04T03:48:58;23.15;;;9.38;;
72439;SDS011;60446;50.752;4.352;2023-02-04T03:51:25;22.25;;;9.40;;
72439;SDS011;60446;50.752;4.352;2023-02-04T03:53:52;22.65;;;8.55;;
72439;SDS011;60446;50.752;4.352;2023-02-04T03:56:19;23.58;;;8.77;;
72439;SDS011;60446;50.752;4.352;2023-02-04T03:58:46;25.23;;;8.40;;
72439;SDS011;60446;50.752;4.352;2023-02-04T04:01:14;23.60;;;9.15;;
72439;SDS011;60446;50.752;4.352;2023-02-04T04:03:41;21.95;;;8.13;;
72439;SDS011;60446;50.752;4.352;2023-02-04T04:06:08;24.02;;;8.05;;
72439;SDS011;60446;50.752;4.352;2023-02-04T04:08:36;22.67;;;7.85;;
72439;SDS011;60446;50.752;4.352;2023-02-04T04:11:04;22.23;;;8.13;;
72439;SDS011;60446;50.752;4.352;2023-02-04T04:13:34;21.50;;;7.43;;
72439;SDS011;60446;50.752;4.352;2023-02-04T04:16:01;21.48;;;8.15;;
72439;SDS011;60446;50.752;4.352;2023-02-04T04:18:39;20.25;;;7.13;;
72439;SDS011;60446;50.752;4.352;2023-02-04T04:21:06;18.98;;;7.32;;
72439;SDS011;60446;50.752;4.352;2023-02-04T04:23:34;20.10;;;7.20;;
72439;SDS011;60446;50.752;4.352;2023-02-04T04:26:04;21.38;;;6.88;;
72439;SDS011;60446;50.752;4.352;2023-02-04T04:28:31;18.15;;;6.50;;
72439;SDS011;60446;50.752;4.352;2023-02-04T04:30:58;20.08;;;6.93;;
72439;SDS011;60446;50.752;4.352;2023-02-04T04:33:26;17.30;;;6.38;;
72439;SDS011;60446;50.752;4.352;2023-02-04T04:35:53;19.47;;;6.67;;
72439;SDS011;60446;50.752;4.352;2023-02-04T04:38:21;20.10;;;5.93;;
72439;SDS011;60446;50.752;4.352;2023-02-04T04:40:48;16.10;;;5.65;;
72439;SDS011;60446;50.752;4.352;2023-02-04T04:43:15;19.10;;;6.25;;
72439;SDS011;60446;50.752;4.352;2023-02-04T04:45:42;18.13;;;6.47;;
72439;SDS011;60446;50.752;4.352;2023-02-04T04:48:11;17.87;;;6.07;;
72439;SDS011;60446;50.752;4.352;2023-02-04T04:50:38;19.05;;;6.47;;
72439;SDS011;60446;50.752;4.352;2023-02-04T04:53:05;17.23;;;5.55;;
72439;SDS011;60446;50.752;4.352;2023-02-04T04:55:36;19.73;;;6.40;;
72439;SDS011;60446;50.752;4.352;2023-02-04T04:58:06;16.20;;;5.55;;
72439;SDS011;60446;50.752;4.352;2023-02-04T05:00:35;19.10;;;6.33;;
72439;SDS011;60446;50.752;4.352;2023-02-04T05:03:02;19.63;;;6.75;;
72439;SDS011;60446;50.752;4.352;2023-02-04T05:05:29;17.17;;;6.13;;
72439;SDS011;60446;50.752;4.352;2023-02-04T05:07:56;23.13;;;6.53;;
72439;SDS011;60446;50.752;4.352;2023-02-04T05:10:24;18.40;;;6.10;;
72439;SDS011;60446;50.752;4.352;2023-02-04T05:12:51;21.23;;;6.60;;
72439;SDS011;60446;50.752;4.352;2023-02-04T05:15:18;22.23;;;6.35;;
72439;SDS011;60446;50.752;4.352;2023-02-04T05:17:45;22.25;;;6.22;;
72439;SDS011;60446;50.752;4.352;2023-02-04T05:20:12;19.95;;;6.60;;
72439;SDS011;60446;50.752;4.352;2023-02-04T05:22:39;21.80;;;6.78;;
72439;SDS011;60446;50.752;4.352;2023-02-04T05:25:07;19.63;;;6.13;;
72439;SDS011;60446;50.752;4.352;2023-02-04T05:27:34;23.33;;;7.30;;
72439;SDS011;60446;50.752;4.352;2023-02-04T05:30:01;23.38;;;6.25;;
72439;SDS011;60446;50.752;4.352;2023-02-04T05:32:29;17.95;;;5.78;;
72439;SDS011;60446;50.752;4.352;2023-02-04T05:34:56;20.90;;;6.05;;
72439;SDS011;60446;50.752;4.352;2023-02-04T05:37:23;19.73;;;5.57;;
72439;SDS011;60446;50.752;4.352;2023-02-04T05:39:50;21.65;;;5.97;;
72439;SDS011;60446;50.752;4.352;2023-02-04T05:42:17;18.90;;;6.07;;
72439;SDS011;60446;50.752;4.352;2023-02-04T05:44:45;20.33;;;6.88;;
72439;SDS011;60446;50.752;4.352;2023-02-04T05:47:12;20.60;;;5.70;;
72439;SDS011;60446;50.752;4.352;2023-02-04T05:49:39;19.87;;;6.23;;
72439;SDS011;60446;50.752;4.352;2023-02-04T05:52:06;19.95;;;6.10;;
72439;SDS011;60446;50.752;4.352;2023-02-04T05:54:33;19.20;;;6.07;;
72439;SDS011;60446;50.752;4.352;2023-02-04T05:57:01;22.48;;;6.43;;
72439;SDS011;60446;50.752;4.352;2023-02-04T05:59:28;22.63;;;6.75;;
72439;SDS011;60446;50.752;4.352;2023-02-04T06:01:55;23.37;;;6.30;;
72439;SDS011;60446;50.752;4.352;2023-02-04T06:04:22;22.40;;;6.72;;
72439;SDS011;60446;50.752;4.352;2023-02-04T06:06:50;25.40;;;6.68;;
72439;SDS011;60446;50.752;4.352;2023-02-04T06:09:17;24.08;;;7.07;;
72439;SDS011;60446;50.752;4.352;2023-02-04T06:11:44;24.58;;;6.85;;
72439;SDS011;60446;50.752;4.352;2023-02-04T06:14:11;21.57;;;6.43;;
72439;SDS011;60446;50.752;4.352;2023-02-04T06:16:38;25.92;;;7.15;;
72439;SDS011;60446;50.752;4.352;2023-02-04T06:19:05;20.67;;;6.75;;
72439;SDS011;60446;50.752;4.352;2023-02-04T06:21:32;21.88;;;6.25;;
72439;SDS011;60446;50.752;4.352;2023-02-04T06:24:00;22.70;;;6.50;;
72439;SDS011;60446;50.752;4.352;2023-02-04T06:26:27;22.90;;;6.23;;
72439;SDS011;60446;50.752;4.352;2023-02-04T06:28:54;20.85;;;6.07;;
72439;SDS011;60446;50.752;4.352;2023-02-04T06:31:21;20.45;;;5.88;;
72439;SDS011;60446;50.752;4.352;2023-02-04T06:33:48;24.00;;;6.80;;
72439;SDS011;60446;50.752;4.352;2023-02-04T06:36:16;22.88;;;5.65;;
72439;SDS011;60446;50.752;4.352;2023-02-04T06:38:43;21.47;;;7.23;;
72439;SDS011;60446;50.752;4.352;2023-02-04T06:41:10;22.30;;;6.72;;
72439;SDS011;60446;50.752;4.352;2023-02-04T06:43:37;20.45;;;5.95;;
72439;SDS011;60446;50.752;4.352;2023-02-04T06:46:04;22.23;;;6.22;;
72439;SDS011;60446;50.752;4.352;2023-02-04T06:48:32;20.10;;;5.82;;
72439;SDS011;60446;50.752;4.352;2023-02-04T06:50:59;20.50;;;6.40;;
72439;SDS011;60446;50.752;4.352;2023-02-04T06:53:26;23.70;;;6.13;;
72439;SDS011;60446;50.752;4.352;2023-02-04T06:55:53;22.50;;;6.50;;
72439;SDS011;60446;50.752;4.352;2023-02-04T06:58:20;21.23;;;6.75;;
72439;SDS011;60446;50.752;4.352;2023-02-04T07:00:48;24.92;;;6.25;;
72439;SDS011;60446;50.752;4.352;2023-02-04T07:03:15;21.90;;;6.90;;
72439;SDS011;60446;50.752;4.352;2023-02-04T07:05:42;25.30;;;6.65;;
72439;SDS011;60446;50.752;4.352;2023-02-04T07:08:09;22.50;;;6.70;;
72439;SDS011;60446;50.752;4.352;2023-02-04T07:10:36;23.23;;;5.97;;
72439;SDS011;60446;50.752;4.352;2023-02-04T07:13:03;25.10;;;6.50;;
72439;SDS011;60446;50.752;4.352;2023-02-04T07:15:30;22.33;;;5.77;;
72439;SDS011;60446;50.752;4.352;2023-02-04T07:17:58;25.90;;;5.50;;
72439;SDS011;60446;50.752;4.352;2023-02-04T07:20:25;18.77;;;4.97;;
72439;SDS011;60446;50.752;4.352;2023-02-04T07:22:52;29.60;;;6.53;;
72439;SDS011;60446;50.752;4.352;2023-02-04T07:25:19;22.83;;;6.38;;
72439;SDS011;60446;50.752;4.352;2023-02-04T07:27:47;20.40;;;5.53;;
72439;SDS011;60446;50.752;4.352;2023-02-04T07:30:14;17.95;;;5.05;;
72439;SDS011;60446;50.752;4.352;2023-02-04T07:32:42;18.77;;;5.53;;
72439;SDS011;60446;50.752;4.352;2023-02-04T07:35:09;18.67;;;5.40;;
72439;SDS011;60446;50.752;4.352;2023-02-04T07:37:37;23.00;;;5.45;;
72439;SDS011;60446;50.752;4.352;2023-02-04T07:40:05;18.67;;;4.63;;
72439;SDS011;60446;50.752;4.352;2023-02-04T07:42:32;15.32;;;4.50;;
72439;SDS011;60446;50.752;4.352;2023-02-04T07:45:08;18.20;;;5.15;;
72439;SDS011;60446;50.752;4.352;2023-02-04T07:47:35;19.67;;;5.20;;
72439;SDS011;60446;50.752;4.352;2023-02-04T07:50:02;17.45;;;5.57;;
72439;SDS011;60446;50.752;4.352;2023-02-04T07:52:30;17.83;;;4.57;;
72439;SDS011;60446;50.752;4.352;2023-02-04T07:54:57;18.13;;;4.97;;
72439;SDS011;60446;50.752;4.352;2023-02-04T07:57:24;18.25;;;4.80;;
72439;SDS011;60446;50.752;4.352;2023-02-04T07:59:52;18.73;;;5.57;;
72439;SDS011;60446;50.752;4.352;2023-02-04T08:02:19;16.13;;;4.35;;
72439;SDS011;60446;50.752;4.352;2023-02-04T08:04:46;13.47;;;3.27;;
72439;SDS011;60446;50.752;4.352;2023-02-04T08:07:14;10.65;;;3.08;;
72439;SDS011;60446;50.752;4.352;2023-02-04T08:09:41;12.82;;;3.08;;
72439;SDS011;60446;50.752;4.352;2023-02-04T08:12:08;10.10;;;3.45;;
72439;SDS011;60446;50.752;4.352;2023-02-04T08:14:35;14.05;;;3.58;;
72439;SDS011;60446;50.752;4.352;2023-02-04T08:17:02;12.17;;;3.83;;
72439;SDS011;60446;50.752;4.352;2023-02-04T08:19:30;14.75;;;4.50;;
72439;SDS011;60446;50.752;4.352;2023-02-04T08:21:57;19.20;;;5.72;;
72439;SDS011;60446;50.752;4.352;2023-02-04T08:24:24;16.80;;;5.40;;
72439;SDS011;60446;50.752;4.352;2023-02-04T08:26:51;19.52;;;5.40;;
72439;SDS011;60446;50.752;4.352;2023-02-04T08:29:18;20.07;;;5.70;;
72439;SDS011;60446;50.752;4.352;2023-02-04T08:31:46;22.08;;;5.85;;
72439;SDS011;60446;50.752;4.352;2023-02-04T08:34:13;16.75;;;5.40;;
72439;SDS011;60446;50.752;4.352;2023-02-04T08:36:40;21.10;;;5.43;;
72439;SDS011;60446;50.752;4.352;2023-02-04T08:39:07;20.55;;;6.70;;
72439;SDS011;60446;50.752;4.352;2023-02-04T08:41:34;22.77;;;6.23;;
72439;SDS011;60446;50.752;4.352;2023-02-04T08:44:02;23.88;;;7.20;;
72439;SDS011;60446;50.752;4.352;2023-02-04T08:46:29;22.25;;;6.32;;
72439;SDS011;60446;50.752;4.352;2023-02-04T08:48:56;17.08;;;4.78;;
72439;SDS011;60446;50.752;4.352;2023-02-04T08:51:23;16.08;;;5.15;;
72439;SDS011;60446;50.752;4.352;2023-02-04T08:53:50;20.13;;;6.50;;
72439;SDS011;60446;50.752;4.352;2023-02-04T08:56:18;14.98;;;4.82;;
72439;SDS011;60446;50.752;4.352;2023-02-04T08:58:46;14.82;;;5.43;;
72439;SDS011;60446;50.752;4.352;2023-02-04T09:01:18;13.75;;;5.00;;
72439;SDS011;60446;50.752;4.352;2023-02-04T09:03:45;15.07;;;4.13;;
72439;SDS011;60446;50.752;4.352;2023-02-04T09:06:12;14.60;;;3.60;;
72439;SDS011;60446;50.752;4.352;2023-02-04T09:08:40;13.40;;;4.72;;
72439;SDS011;60446;50.752;4.352;2023-02-04T09:11:07;11.65;;;4.57;;
72439;SDS011;60446;50.752;4.352;2023-02-04T09:13:38;14.30;;;4.53;;
72439;SDS011;60446;50.752;4.352;2023-02-04T09:16:08;14.23;;;4.15;;
72439;SDS011;60446;50.752;4.352;2023-02-04T09:18:36;15.50;;;4.80;;
72439;SDS011;60446;50.752;4.352;2023-02-04T09:21:03;15.15;;;5.03;;
72439;SDS011;60446;50.752;4.352;2023-02-04T09:23:33;15.00;;;4.90;;
72439;SDS011;60446;50.752;4.352;2023-02-04T09:26:03;11.93;;;3.88;;
72439;SDS011;60446;50.752;4.352;2023-02-04T09:28:34;12.75;;;4.35;;
72439;SDS011;60446;50.752;4.352;2023-02-04T09:31:01;10.23;;;3.00;;
72439;SDS011;60446;50.752;4.352;2023-02-04T09:33:36;11.52;;;3.70;;
72439;SDS011;60446;50.752;4.352;2023-02-04T09:36:06;10.48;;;3.60;;
72439;SDS011;60446;50.752;4.352;2023-02-04T09:38:36;14.40;;;3.47;;
72439;SDS011;60446;50.752;4.352;2023-02-04T09:41:37;9.32;;;2.78;;
72439;SDS011;60446;50.752;4.352;2023-02-04T09:44:17;10.23;;;2.97;;
72439;SDS011;60446;50.752;4.352;2023-02-04T09:46:55;9.27;;;2.63;;
72439;SDS011;60446;50.752;4.352;2023-02-04T09:49:28;10.40;;;3.13;;
72439;SDS011;60446;50.752;4.352;2023-02-04T09:51:59;10.20;;;3.65;;
72439;SDS011;60446;50.752;4.352;2023-02-04T09:54:33;10.77;;;3.42;;
72439;SDS011;60446;50.752;4.352;2023-02-04T09:57:01;9.10;;;3.07;;
72439;SDS011;60446;50.752;4.352;2023-02-04T09:59:46;10.82;;;3.28;;
72439;SDS011;60446;50.752;4.352;2023-02-04T10:02:23;9.48;;;2.80;;
72439;SDS011;60446;50.752;4.352;2023-02-04T10:04:55;10.25;;;2.88;;
72439;SDS011;60446;50.752;4.352;2023-02-04T10:07:23;9.77;;;3.22;;
72439;SDS011;60446;50.752;4.352;2023-02-04T10:09:55;10.57;;;2.83;;
72439;SDS011;60446;50.752;4.352;2023-02-04T10:12:27;11.32;;;3.40;;
72439;SDS011;60446;50.752;4.352;2023-02-04T10:14:59;11.13;;;2.70;;
72439;SDS011;60446;50.752;4.352;2023-02-04T10:17:38;9.63;;;2.40;;
72439;SDS011;60446;50.752;4.352;2023-02-04T10:20:10;10.73;;;3.30;;
72439;SDS011;60446;50.752;4.352;2023-02-04T10:22:43;11.67;;;3.47;;
72439;SDS011;60446;50.752;4.352;2023-02-04T10:25:13;10.20;;;3.10;;
72439;SDS011;60446;50.752;4.352;2023-02-04T10:27:53;7.78;;;2.25;;
72439;SDS011;60446;50.752;4.352;2023-02-04T10:30:59;9.85;;;2.40;;
72439;SDS011;60446;50.752;4.352;2023-02-04T10:33:22;8.65;;;2.15;;
72439;SDS011;60446;50.752;4.352;2023-02-04T10:35:51;8.27;;;2.23;;
72439;SDS011;60446;50.752;4.352;2023-02-04T10:38:22;8.63;;;2.80;;
72439;SDS011;60446;50.752;4.352;2023-02-04T10:41:02;9.10;;;2.22;;
72439;SDS011;60446;50.752;4.352;2023-02-04T10:43:31;7.43;;;2.15;;
72439;SDS011;60446;50.752;4.352;2023-02-04T10:46:02;7.28;;;2.22;;
72439;SDS011;60446;50.752;4.352;2023-02-04T10:48:38;7.67;;;2.33;;
72439;SDS011;60446;50.752;4.352;2023-02-04T10:51:09;7.72;;;2.30;;
72439;SDS011;60446;50.752;4.352;2023-02-04T10:53:39;8.15;;;2.25;;
72439;SDS011;60446;50.752;4.352;2023-02-04T10:56:25;7.18;;;2.03;;
72439;SDS011;60446;50.752;4.352;2023-02-04T10:58:52;8.50;;;2.63;;
72439;SDS011;60446;50.752;4.352;2023-02-04T11:01:19;8.33;;;2.40;;
72439;SDS011;60446;50.752;4.352;2023-02-04T11:03:46;6.32;;;1.75;;
72439;SDS011;60446;50.752;4.352;2023-02-04T11:06:19;6.20;;;1.88;;
72439;SDS011;60446;50.752;4.352;2023-02-04T11:08:49;6.57;;;1.80;;
72439;SDS011;60446;50.752;4.352;2023-02-04T11:11:24;6.88;;;1.98;;
72439;SDS011;60446;50.752;4.352;2023-02-04T11:16:24;7.38;;;2.20;;
72439;SDS011;60446;50.752;4.352;2023-02-04T11:19:01;7.35;;;2.00;;
72439;SDS011;60446;50.752;4.352;2023-02-04T11:26:44;6.23;;;2.67;;
72439;SDS011;60446;50.752;4.352;2023-02-04T11:29:32;8.30;;;2.70;;
72439;SDS011;60446;50.752;4.352;2023-02-04T11:32:04;8.55;;;2.50;;
72439;SDS011;60446;50.752;4.352;2023-02-04T11:34:46;9.70;;;3.42;;
72439;SDS011;60446;50.752;4.352;2023-02-04T11:37:27;9.15;;;3.08;;
72439;SDS011;60446;50.752;4.352;2023-02-04T11:40:25;8.87;;;2.37;;
72439;SDS011;60446;50.752;4.352;2023-02-04T11:42:57;12.50;;;3.53;;
72439;SDS011;60446;50.752;4.352;2023-02-04T11:45:39;11.82;;;3.55;;
72439;SDS011;60446;50.752;4.352;2023-02-04T11:48:17;11.05;;;3.85;;
72439;SDS011;60446;50.752;4.352;2023-02-04T11:50:55;10.15;;;3.95;;
72439;SDS011;60446;50.752;4.352;2023-02-04T11:53:31;11.23;;;4.17;;
72439;SDS011;60446;50.752;4.352;2023-02-04T11:55:59;11.23;;;4.13;;
72439;SDS011;60446;50.752;4.352;2023-02-04T11:58:27;13.52;;;4.32;;
72439;SDS011;60446;50.752;4.352;2023-02-04T12:00:56;11.40;;;4.32;;
72439;SDS011;60446;50.752;4.352;2023-02-04T12:03:25;13.65;;;4.43;;
72439;SDS011;60446;50.752;4.352;2023-02-04T12:05:56;13.03;;;5.20;;
72439;SDS011;60446;50.752;4.352;2023-02-04T12:08:31;14.77;;;5.53;;
72439;SDS011;60446;50.752;4.352;2023-02-04T12:11:12;15.15;;;5.00;;
72439;SDS011;60446;50.752;4.352;2023-02-04T12:13:53;13.95;;;4.93;;
72439;SDS011;60446;50.752;4.352;2023-02-04T12:16:22;15.48;;;5.28;;
72439;SDS011;60446;50.752;4.352;2023-02-04T12:18:50;13.77;;;5.13;;
72439;SDS011;60446;50.752;4.352;2023-02-04T12:21:18;17.42;;;5.85;;
72439;SDS011;60446;50.752;4.352;2023-02-04T12:23:45;15.90;;;4.80;;
72439;SDS011;60446;50.752;4.352;2023-02-04T12:26:12;16.83;;;4.80;;
72439;SDS011;60446;50.752;4.352;2023-02-04T12:28:39;15.23;;;4.53;;
72439;SDS011;60446;50.752;4.352;2023-02-04T12:31:07;15.17;;;4.77;;
72439;SDS011;60446;50.752;4.352;2023-02-04T12:33:34;20.77;;;4.93;;
72439;SDS011;60446;50.752;4.352;2023-02-04T12:36:01;16.42;;;4.97;;
72439;SDS011;60446;50.752;4.352;2023-02-04T12:38:28;16.77;;;5.53;;
72439;SDS011;60446;50.752;4.352;2023-02-04T12:40:55;18.35;;;5.72;;
72439;SDS011;60446;50.752;4.352;2023-02-04T12:43:23;16.03;;;5.23;;
72439;SDS011;60446;50.752;4.352;2023-02-04T12:45:53;19.02;;;5.90;;
72439;SDS011;60446;50.752;4.352;2023-02-04T12:48:21;18.55;;;5.88;;
72439;SDS011;60446;50.752;4.352;2023-02-04T12:50:48;18.67;;;6.38;;
72439;SDS011;60446;50.752;4.352;2023-02-04T12:53:15;20.52;;;6.97;;
72439;SDS011;60446;50.752;4.352;2023-02-04T12:55:43;19.53;;;6.97;;
72439;SDS011;60446;50.752;4.352;2023-02-04T12:58:10;18.25;;;6.43;;
72439;SDS011;60446;50.752;4.352;2023-02-04T13:00:37;20.20;;;5.85;;
72439;SDS011;60446;50.752;4.352;2023-02-04T13:03:04;20.65;;;6.60;;
72439;SDS011;60446;50.752;4.352;2023-02-04T13:05:31;22.30;;;7.10;;
72439;SDS011;60446;50.752;4.352;2023-02-04T13:08:01;23.83;;;7.20;;
72439;SDS011;60446;50.752;4.352;2023-02-04T13:10:28;24.13;;;7.50;;
72439;SDS011;60446;50.752;4.352;2023-02-04T13:12:55;23.05;;;7.35;;
72439;SDS011;60446;50.752;4.352;2023-02-04T13:15:22;25.48;;;8.18;;
72439;SDS011;60446;50.752;4.352;2023-02-04T13:17:49;26.15;;;7.95;;
72439;SDS011;60446;50.752;4.352;2023-02-04T13:20:19;24.27;;;8.73;;
72439;SDS011;60446;50.752;4.352;2023-02-04T13:22:47;27.15;;;8.13;;
72439;SDS011;60446;50.752;4.352;2023-02-04T13:25:14;20.23;;;7.47;;
72439;SDS011;60446;50.752;4.352;2023-02-04T13:27:41;27.58;;;7.82;;
72439;SDS011;60446;50.752;4.352;2023-02-04T13:30:09;23.70;;;7.90;;
72439;SDS011;60446;50.752;4.352;2023-02-04T13:32:39;30.10;;;9.10;;
72439;SDS011;60446;50.752;4.352;2023-02-04T13:35:06;27.85;;;8.70;;
72439;SDS011;60446;50.752;4.352;2023-02-04T13:37:33;26.85;;;8.07;;
72439;SDS011;60446;50.752;4.352;2023-02-04T13:40:01;25.98;;;8.70;;
72439;SDS011;60446;50.752;4.352;2023-02-04T13:42:28;34.65;;;9.60;;
72439;SDS011;60446;50.752;4.352;2023-02-04T13:44:57;33.77;;;9.77;;
72439;SDS011;60446;50.752;4.352;2023-02-04T13:47:25;30.02;;;9.30;;
72439;SDS011;60446;50.752;4.352;2023-02-04T13:49:52;29.90;;;9.95;;
72439;SDS011;60446;50.752;4.352;2023-02-04T13:52:19;25.92;;;8.82;;
72439;SDS011;60446;50.752;4.352;2023-02-04T13:54:47;27.23;;;9.25;;
72439;SDS011;60446;50.752;4.352;2023-02-04T13:57:14;23.47;;;8.73;;
72439;SDS011;60446;50.752;4.352;2023-02-04T13:59:42;28.52;;;8.88;;
72439;SDS011;60446;50.752;4.352;2023-02-04T14:02:09;29.23;;;9.52;;
72439;SDS011;60446;50.752;4.352;2023-02-04T14:04:37;33.33;;;9.30;;
72439;SDS011;60446;50.752;4.352;2023-02-04T14:07:04;31.38;;;10.05;;
72439;SDS011;60446;50.752;4.352;2023-02-04T14:09:31;23.63;;;8.90;;
72439;SDS011;60446;50.752;4.352;2023-02-04T14:11:58;25.77;;;8.15;;
72439;SDS011;60446;50.752;4.352;2023-02-04T14:14:25;24.65;;;8.27;;
72439;SDS011;60446;50.752;4.352;2023-02-04T14:16:52;23.77;;;7.95;;
72439;SDS011;60446;50.752;4.352;2023-02-04T14:19:19;21.35;;;8.23;;
72439;SDS011;60446;50.752;4.352;2023-02-04T14:21:46;22.63;;;7.63;;
72439;SDS011;60446;50.752;4.352;2023-02-04T14:24:15;20.27;;;8.10;;
72439;SDS011;60446;50.752;4.352;2023-02-04T14:26:42;20.33;;;7.15;;
72439;SDS011;60446;50.752;4.352;2023-02-04T14:29:09;24.15;;;7.65;;
72439;SDS011;60446;50.752;4.352;2023-02-04T14:31:37;24.15;;;7.32;;
72439;SDS011;60446;50.752;4.352;2023-02-04T14:34:04;23.80;;;8.43;;
72439;SDS011;60446;50.752;4.352;2023-02-04T14:36:31;20.40;;;6.95;;
72439;SDS011;60446;50.752;4.352;2023-02-04T14:38:58;25.33;;;7.68;;
72439;SDS011;60446;50.752;4.352;2023-02-04T14:41:26;20.85;;;7.40;;
72439;SDS011;60446;50.752;4.352;2023-02-04T14:43:55;21.98;;;8.07;;
72439;SDS011;60446;50.752;4.352;2023-02-04T14:46:22;20.60;;;7.47;;
72439;SDS011;60446;50.752;4.352;2023-02-04T14:48:50;23.80;;;8.45;;
72439;SDS011;60446;50.752;4.352;2023-02-04T14:51:18;22.00;;;7.43;;
72439;SDS011;60446;50.752;4.352;2023-02-04T14:53:45;20.33;;;8.32;;
72439;SDS011;60446;50.752;4.352;2023-02-04T14:56:14;21.60;;;7.38;;
72439;SDS011;60446;50.752;4.352;2023-02-04T14:58:42;25.93;;;8.00;;